Time;durP1;ratioP1;P1;durP2;ratioP2;P2;SDS_P1;SDS_P2;PMS_P1;PMS_P2;Temp;Humidity;BMP_temperature;BMP_pressure;BME280_temperature;BME280_humidity;BME280_pressure;Samples;Min_cycle;Max_cycle;Signal;HPM_P1;HPM_P2
2021/05/22 00:01:39;;;;;;;1999.90;999.90;;;9.50;99.90;;;;;;5055406;28;20158;-43
2021/05/22 00:04:06;;;;;;;1999.90;999.90;;;9.40;99.90;;;;;;5055299;28;20165;-43
2021/05/22 00:06:33;;;;;;;1999.90;999.90;;;9.40;99.90;;;;;;5055375;28;20181;-41
2021/05/22 00:09:00;;;;;;;1999.90;999.90;;;9.40;99.90;;;;;;5055332;28;20196;-46
2021/05/22 00:11:27;;;;;;;1999.90;999.90;;;9.40;99.90;;;;;;5055160;28;20166;-44
2021/05/22 00:13:54;;;;;;;1999.90;999.90;;;9.50;99.90;;;;;;5055126;28;20177;-45
2021/05/22 00:16:20;;;;;;;1999.90;999.90;;;9.40;99.90;;;;;;5054996;28;20224;-40
2021/05/22 00:18:47;;;;;;;1999.90;999.90;;;9.30;99.90;;;;;;5053748;28;20516;-43
2021/05/22 00:21:14;;;;;;;1999.90;999.90;;;9.20;99.90;;;;;;5055066;28;20223;-40
2021/05/22 00:23:41;;;;;;;1999.90;999.90;;;9.30;99.90;;;;;;5054993;28;20168;-41
2021/05/22 00:26:08;;;;;;;1999.90;999.90;;;9.20;99.90;;;;;;5054924;28;20615;-44
2021/05/22 00:28:35;;;;;;;1999.90;999.90;;;9.10;99.90;;;;;;5054897;28;20197;-43
2021/05/22 00:31:02;;;;;;;1999.90;999.90;;;9.10;99.90;;;;;;5055036;28;20165;-40
2021/05/22 00:33:28;;;;;;;1999.90;999.90;;;9.10;99.90;;;;;;5054833;28;20157;-43
2021/05/22 00:35:56;;;;;;;1999.90;999.90;;;9.00;99.90;;;;;;5054738;28;20179;-40
2021/05/22 00:38:22;;;;;;;1999.90;999.90;;;9.00;99.90;;;;;;5054740;28;20161;-42
2021/05/22 00:40:49;;;;;;;1999.90;999.90;;;8.90;99.90;;;;;;5054602;28;20196;-43
2021/05/22 00:43:16;;;;;;;1999.90;999.90;;;9.00;99.90;;;;;;5054631;28;20188;-40
2021/05/22 00:45:44;;;;;;;1999.90;999.90;;;8.90;99.90;;;;;;5054382;28;20216;-41
2021/05/22 00:48:11;;;;;;;1999.90;999.90;;;8.90;99.90;;;;;;5054387;28;20208;-43
2021/05/22 00:50:44;;;;;;;1999.90;999.90;;;9.00;99.90;;;;;;5054631;28;20187;-45
2021/05/22 00:53:12;;;;;;;1999.90;999.90;;;9.00;99.90;;;;;;5054427;28;20204;-43
2021/05/22 00:55:40;;;;;;;1999.90;999.90;;;8.90;99.90;;;;;;5054348;28;20600;-40
2021/05/22 00:58:07;;;;;;;1999.90;999.90;;;8.90;99.90;;;;;;5054446;28;20172;-43
2021/05/22 01:00:44;;;;;;;1999.90;999.90;;;8.90;99.90;;;;;;5054582;28;20782;-41
2021/05/22 01:03:39;;;;;;;1999.90;999.90;;;9.00;99.90;;;;;;5054195;28;20160;-43
2021/05/22 01:06:29;;;;;;;1999.90;999.90;;;9.00;99.90;;;;;;5054519;28;20176;-43
2021/05/22 01:09:08;;;;;;;1999.90;999.90;;;9.00;99.90;;;;;;5054036;28;20211;-40
2021/05/22 01:11:59;;;;;;;1999.90;999.90;;;9.00;99.90;;;;;;5054116;28;20157;-43
2021/05/22 01:14:42;;;;;;;1999.90;999.90;;;8.90;99.90;;;;;;5049120;28;20275;-43
2021/05/22 01:17:12;;;;;;;1999.90;999.90;;;8.80;99.90;;;;;;5054077;28;20160;-41
2021/05/22 01:20:15;;;;;;;1999.90;999.90;;;8.80;99.90;;;;;;5053980;28;20184;-44
2021/05/22 01:22:45;;;;;;;1999.90;999.90;;;8.80;99.90;;;;;;5044840;28;20200;-40
2021/05/22 01:25:33;;;;;;;1999.90;999.90;;;8.70;99.90;;;;;;5053917;28;20196;-40
2021/05/22 01:28:03;;;;;;;1999.90;999.90;;;8.60;99.90;;;;;;5052402;28;20720;-43
2021/05/22 01:30:30;;;;;;;1999.90;999.90;;;8.50;99.90;;;;;;5053708;28;20522;-40
2021/05/22 01:32:57;;;;;;;1999.90;999.90;;;8.50;99.90;;;;;;5053592;28;20256;-40
2021/05/22 01:35:24;;;;;;;1999.90;999.90;;;8.60;99.90;;;;;;5053653;28;20256;-43
2021/05/22 01:37:51;;;;;;;1999.90;999.90;;;8.60;99.90;;;;;;5053561;28;20587;-42
2021/05/22 01:40:18;;;;;;;1999.90;999.90;;;8.50;99.90;;;;;;5053585;28;20654;-42
2021/05/22 01:42:45;;;;;;;1999.90;999.90;;;8.50;99.90;;;;;;5053481;28;20207;-43
2021/05/22 01:45:29;;;;;;;1999.90;999.90;;;8.40;99.90;;;;;;5053396;28;20168;-43
2021/05/22 01:47:58;;;;;;;1999.90;999.90;;;8.30;99.90;;;;;;5053304;28;20205;-40
2021/05/22 01:50:27;;;;;;;1999.90;999.90;;;8.30;99.90;;;;;;5053330;28;20173;-40
2021/05/22 01:52:56;;;;;;;1999.90;999.90;;;8.30;99.90;;;;;;5053233;28;20177;-40
2021/05/22 01:55:23;;;;;;;1999.90;999.90;;;8.30;99.90;;;;;;5053330;28;20180;-43
2021/05/22 01:57:51;;;;;;;1999.90;999.90;;;8.30;99.90;;;;;;5052972;28;20165;-40
2021/05/22 02:00:19;;;;;;;1999.90;999.90;;;8.20;99.90;;;;;;5053189;28;20164;-44
2021/05/22 02:03:08;;;;;;;1999.90;999.90;;;8.20;99.90;;;;;;5053204;28;20506;-42
2021/05/22 02:05:36;;;;;;;1999.90;999.90;;;8.20;99.90;;;;;;5053221;28;20173;-42
2021/05/22 02:08:06;;;;;;;1999.90;999.90;;;8.30;99.90;;;;;;5052960;28;20226;-41
2021/05/22 02:10:33;;;;;;;1999.90;999.90;;;8.30;99.90;;;;;;5051716;28;20548;-44
2021/05/22 02:13:01;;;;;;;1999.90;999.90;;;8.30;99.90;;;;;;5053063;28;20157;-41
2021/05/22 02:15:31;;;;;;;1999.90;999.90;;;8.30;99.90;;;;;;5053009;28;20170;-41
2021/05/22 02:17:58;;;;;;;1999.90;999.90;;;8.20;99.90;;;;;;5053026;28;20169;-41
2021/05/22 02:20:27;;;;;;;1999.90;999.90;;;8.20;99.90;;;;;;5052860;28;20225;-43
2021/05/22 02:22:56;;;;;;;1999.90;999.90;;;8.00;99.90;;;;;;5052914;28;20615;-40
2021/05/22 02:25:23;;;;;;;1999.90;999.90;;;8.00;99.90;;;;;;5052813;28;20180;-44
2021/05/22 02:27:51;;;;;;;1999.90;999.90;;;8.00;99.90;;;;;;5052806;28;20510;-43
2021/05/22 02:30:18;;;;;;;1999.90;999.90;;;8.10;99.90;;;;;;5052797;28;20737;-43
2021/05/22 02:32:48;;;;;;;1999.90;999.90;;;8.10;99.90;;;;;;5052916;28;20168;-43
2021/05/22 02:35:19;;;;;;;1999.90;999.90;;;8.00;99.90;;;;;;5052791;28;20635;-41
2021/05/22 02:37:50;;;;;;;1999.90;999.90;;;8.10;99.90;;;;;;5052918;28;20154;-40
2021/05/22 02:40:21;;;;;;;1999.90;999.90;;;8.00;99.90;;;;;;5052878;28;20172;-44
2021/05/22 02:43:05;;;;;;;1999.90;999.90;;;8.00;99.90;;;;;;5052760;28;20161;-40
2021/05/22 02:45:35;;;;;;;1999.90;999.90;;;7.90;99.90;;;;;;5052519;28;20305;-40
2021/05/22 02:48:03;;;;;;;1999.90;999.90;;;7.80;99.90;;;;;;5052634;28;20258;-44
2021/05/22 02:50:32;;;;;;;1999.90;999.90;;;7.80;99.90;;;;;;5052649;28;20200;-40
2021/05/22 02:53:00;;;;;;;1999.90;999.90;;;7.80;99.90;;;;;;5052570;28;20571;-43
2021/05/22 02:55:29;;;;;;;1999.90;999.90;;;7.80;99.90;;;;;;5052481;28;20169;-40
2021/05/22 02:57:57;;;;;;;1999.90;999.90;;;7.80;99.90;;;;;;5052496;28;20172;-40
2021/05/22 03:00:25;;;;;;;1999.90;999.90;;;7.70;99.90;;;;;;5052578;28;20185;-40
2021/05/22 03:02:52;;;;;;;1999.90;999.90;;;7.80;99.90;;;;;;5052623;28;20204;-40
2021/05/22 03:05:19;;;;;;;1999.90;999.90;;;7.80;99.90;;;;;;5052602;28;20646;-40
2021/05/22 03:07:45;;;;;;;1999.90;999.90;;;7.80;99.90;;;;;;5052525;28;20202;-40
2021/05/22 03:10:14;;;;;;;1999.90;999.90;;;7.80;99.90;;;;;;5052923;28;20196;-43
2021/05/22 03:12:40;;;;;;;1999.90;999.90;;;7.70;99.90;;;;;;5056328;28;20180;-40
2021/05/22 03:15:08;;;;;;;1999.90;999.90;;;7.70;99.90;;;;;;5056345;28;20630;-40
2021/05/22 03:17:36;;;;;;;1999.90;999.90;;;7.70;99.90;;;;;;5056288;28;20175;-40
2021/05/22 03:20:05;;;;;;;1999.90;999.90;;;7.70;99.90;;;;;;5056250;28;20313;-43
2021/05/22 03:22:32;;;;;;;1999.90;999.90;;;7.70;99.90;;;;;;5056286;28;20168;-44
2021/05/22 03:24:59;;;;;;;1999.90;999.90;;;7.70;99.90;;;;;;5056158;28;20198;-44
2021/05/22 03:27:26;;;;;;;1999.90;999.90;;;7.70;99.90;;;;;;5056034;28;20168;-40
2021/05/22 03:29:53;;;;;;;1999.90;999.90;;;7.60;99.90;;;;;;5055937;28;20189;-40
2021/05/22 03:32:19;;;;;;;1999.90;999.90;;;7.60;99.90;;;;;;5056117;28;20209;-40
2021/05/22 03:34:46;;;;;;;1999.90;999.90;;;7.50;99.90;;;;;;5055915;28;20176;-41
2021/05/22 03:37:13;;;;;;;1999.90;999.90;;;7.50;99.90;;;;;;5055863;28;20174;-46
2021/05/22 03:39:40;;;;;;;1999.90;999.90;;;7.50;99.90;;;;;;5055726;28;20187;-40
2021/05/22 03:42:07;;;;;;;1999.90;999.90;;;7.50;99.90;;;;;;5055798;28;20195;-41
2021/05/22 03:44:34;;;;;;;1999.90;999.90;;;7.50;99.90;;;;;;5055709;28;20546;-44
2021/05/22 03:47:01;;;;;;;1999.90;999.90;;;7.50;99.90;;;;;;5055485;28;20220;-45
2021/05/22 03:49:28;;;;;;;1999.90;999.90;;;7.50;99.90;;;;;;5055560;28;20228;-42
2021/05/22 03:51:56;;;;;;;1999.90;999.90;;;7.60;99.90;;;;;;5055493;28;20637;-40
2021/05/22 03:54:23;;;;;;;1999.90;999.90;;;7.60;99.90;;;;;;5055647;28;20532;-46
2021/05/22 03:56:50;;;;;;;1999.90;999.90;;;7.60;99.90;;;;;;5055641;28;20161;-41
2021/05/22 03:59:17;;;;;;;1999.90;999.90;;;7.60;99.90;;;;;;5055458;28;20238;-46
2021/05/22 04:01:44;;;;;;;1999.90;999.90;;;7.60;99.90;;;;;;5055469;28;20503;-45
2021/05/22 04:04:11;;;;;;;1999.90;999.90;;;7.60;99.90;;;;;;5055308;28;20171;-41
2021/05/22 04:06:38;;;;;;;1999.90;999.90;;;7.60;99.90;;;;;;5055178;28;20598;-41
2021/05/22 04:09:05;;;;;;;1999.90;999.90;;;7.50;99.90;;;;;;5055020;28;20254;-41
2021/05/22 04:11:37;;;;;;;1999.90;999.90;;;7.50;99.90;;;;;;5055122;28;20169;-44
2021/05/22 04:14:04;;;;;;;1999.90;999.90;;;7.50;99.90;;;;;;5055061;28;20196;-43
2021/05/22 04:16:31;;;;;;;1999.90;999.90;;;7.50;99.90;;;;;;5055043;28;20695;-45
2021/05/22 04:18:59;;;;;;;1999.90;999.90;;;7.40;99.90;;;;;;5055123;28;20169;-43
2021/05/22 04:21:26;;;;;;;1999.90;999.90;;;7.40;99.90;;;;;;5054665;28;20173;-42
2021/05/22 04:23:53;;;;;;;1999.90;999.90;;;7.30;99.90;;;;;;5055172;28;20255;-45
2021/05/22 04:26:19;;;;;;;1999.90;999.90;;;7.30;99.90;;;;;;5054920;28;20179;-44
2021/05/22 04:28:46;;;;;;;1999.90;999.90;;;7.40;99.90;;;;;;5054788;28;20232;-41
2021/05/22 04:31:13;;;;;;;1999.90;999.90;;;7.40;99.90;;;;;;5055143;28;20167;-43
2021/05/22 04:33:40;;;;;;;1999.90;999.90;;;7.40;99.90;;;;;;5054743;28;20187;-44
2021/05/22 04:36:07;;;;;;;1999.90;999.90;;;7.30;99.90;;;;;;5054754;28;20168;-43
2021/05/22 04:38:34;;;;;;;1999.90;999.90;;;7.30;99.90;;;;;;5054712;28;20164;-43
2021/05/22 04:41:01;;;;;;;1999.90;999.90;;;7.20;99.90;;;;;;5054713;28;20528;-45
2021/05/22 04:43:29;;;;;;;1999.90;999.90;;;7.20;99.90;;;;;;5054565;28;20172;-43
2021/05/22 04:45:55;;;;;;;1999.90;999.90;;;7.20;99.90;;;;;;5054358;28;20224;-42
2021/05/22 04:48:22;;;;;;;1999.90;999.90;;;7.10;99.90;;;;;;5054652;28;20567;-45
2021/05/22 04:50:49;;;;;;;1999.90;999.90;;;7.10;99.90;;;;;;5054346;28;20199;-44
2021/05/22 04:53:16;;;;;;;1999.90;999.90;;;7.10;99.90;;;;;;5054376;28;20178;-43
2021/05/22 04:55:43;;;;;;;1999.90;999.90;;;7.00;99.90;;;;;;5054433;28;20168;-43
2021/05/22 04:58:10;;;;;;;1999.90;999.90;;;7.00;99.90;;;;;;5054367;28;20178;-43
2021/05/22 05:00:37;;;;;;;1999.90;999.90;;;7.00;99.90;;;;;;5054306;28;20201;-44
2021/05/22 05:03:03;;;;;;;1999.90;999.90;;;7.10;99.90;;;;;;5054249;28;20590;-45
2021/05/22 05:05:30;;;;;;;1999.90;999.90;;;7.10;99.90;;;;;;5054205;28;20203;-44
2021/05/22 05:07:57;;;;;;;1999.90;999.90;;;7.00;99.90;;;;;;5054276;28;20580;-45
2021/05/22 05:10:24;;;;;;;1999.90;999.90;;;7.00;99.90;;;;;;5054138;28;20402;-44
2021/05/22 05:12:53;;;;;;;1999.90;999.90;;;6.90;99.90;;;;;;5054042;28;20261;-44
2021/05/22 05:15:20;;;;;;;1999.90;999.90;;;6.80;99.90;;;;;;5054040;28;20659;-43
2021/05/22 05:17:47;;;;;;;1999.90;999.90;;;6.80;99.90;;;;;;5054363;28;20559;-46
2021/05/22 05:20:14;;;;;;;1999.90;999.90;;;6.80;99.90;;;;;;5053883;28;20636;-42
2021/05/22 05:22:41;;;;;;;1999.90;999.90;;;6.80;99.90;;;;;;5053833;28;20224;-42
2021/05/22 05:25:08;;;;;;;1999.90;999.90;;;6.80;99.90;;;;;;5053879;28;20280;-41
2021/05/22 05:27:35;;;;;;;1999.90;999.90;;;6.80;99.90;;;;;;5053783;28;20165;-45
2021/05/22 05:30:03;;;;;;;1999.90;999.90;;;6.80;99.90;;;;;;5053687;28;20253;-41
2021/05/22 05:32:30;;;;;;;1999.90;999.90;;;6.80;99.90;;;;;;5053549;28;20171;-45
2021/05/22 05:34:57;;;;;;;1999.90;999.90;;;6.80;99.90;;;;;;5053328;28;20269;-44
2021/05/22 05:37:23;;;;;;;1999.90;999.90;;;6.80;99.90;;;;;;5053628;28;20172;-41
2021/05/22 05:39:50;;;;;;;1999.90;999.90;;;6.70;99.90;;;;;;5053488;28;20590;-45
2021/05/22 05:42:17;;;;;;;1999.90;999.90;;;6.70;99.90;;;;;;5053488;28;20162;-43
2021/05/22 05:44:44;;;;;;;1999.90;999.90;;;6.70;99.90;;;;;;5053447;28;20279;-43
2021/05/22 05:47:11;;;;;;;1999.90;999.90;;;6.70;99.90;;;;;;5053280;28;20686;-42
2021/05/22 05:49:37;;;;;;;1999.90;999.90;;;6.80;99.90;;;;;;5053311;28;20208;-43
2021/05/22 05:52:04;;;;;;;1999.90;999.90;;;6.80;99.90;;;;;;5053244;28;20171;-41
2021/05/22 05:54:31;;;;;;;1999.90;999.90;;;6.70;99.90;;;;;;5053478;28;20181;-44
2021/05/22 05:56:58;;;;;;;1999.90;999.90;;;6.70;99.90;;;;;;5053379;28;20174;-44
2021/05/22 05:59:25;;;;;;;1999.90;999.90;;;6.70;99.90;;;;;;5053205;28;20199;-41
2021/05/22 06:01:52;;;;;;;1999.90;999.90;;;6.70;99.90;;;;;;5053212;28;20178;-41
2021/05/22 06:04:19;;;;;;;1999.90;999.90;;;6.70;99.90;;;;;;5053158;28;20176;-42
2021/05/22 06:06:47;;;;;;;1999.90;999.90;;;6.70;99.90;;;;;;5053119;28;20644;-51
2021/05/22 06:09:14;;;;;;;1999.90;999.90;;;6.80;99.90;;;;;;5052881;28;20245;-41
2021/05/22 06:11:41;;;;;;;1999.90;999.90;;;6.70;99.90;;;;;;5053045;28;20184;-41
2021/05/22 06:14:15;;;;;;;1999.90;999.90;;;6.80;99.90;;;;;;5052909;28;20183;-44
2021/05/22 06:16:42;;;;;;;1999.90;999.90;;;6.90;99.90;;;;;;5053001;28;20156;-43
2021/05/22 06:19:09;;;;;;;1999.90;999.90;;;7.00;99.90;;;;;;5052913;28;20179;-40
2021/05/22 06:21:38;;;;;;;1999.90;999.90;;;7.00;99.90;;;;;;5052916;28;20179;-42
2021/05/22 06:24:05;;;;;;;1999.90;999.90;;;7.10;99.90;;;;;;5052913;28;20179;-47
2021/05/22 06:26:33;;;;;;;1999.90;999.90;;;7.10;99.90;;;;;;5052948;28;20176;-46
2021/05/22 06:29:00;;;;;;;1999.90;999.90;;;7.10;99.90;;;;;;5052852;28;20243;-41
2021/05/22 06:31:27;;;;;;;1999.90;999.90;;;7.20;99.90;;;;;;5052731;28;20165;-46
2021/05/22 06:33:54;;;;;;;1999.90;999.90;;;7.20;99.90;;;;;;5052720;28;20183;-44
2021/05/22 06:36:21;;;;;;;1999.90;999.90;;;7.30;99.90;;;;;;5052730;28;20603;-41
2021/05/22 06:38:48;;;;;;;1999.90;999.90;;;7.30;99.90;;;;;;5052718;28;20549;-45
2021/05/22 06:41:15;;;;;;;1999.90;999.90;;;7.50;99.90;;;;;;5052664;28;20215;-42
2021/05/22 06:43:42;;;;;;;1999.90;999.90;;;7.60;99.90;;;;;;5052660;28;20172;-45
2021/05/22 06:48:38;;;;;;;1999.90;999.90;;;7.70;99.90;;;;;;5056577;28;20692;-41
2021/05/22 06:51:05;;;;;;;1999.90;999.90;;;7.70;99.90;;;;;;5056537;28;20172;-40
2021/05/22 06:53:32;;;;;;;1999.90;999.90;;;7.80;99.90;;;;;;5056506;28;20210;-45
2021/05/22 06:56:00;;;;;;;1999.90;999.90;;;7.90;99.90;;;;;;5056339;28;20173;-39
2021/05/22 06:58:27;;;;;;;1999.90;999.90;;;8.00;99.90;;;;;;5056470;28;20561;-40
2021/05/22 07:00:54;;;;;;;1999.90;999.90;;;8.30;99.90;;;;;;5056366;28;20180;-46
2021/05/22 07:03:21;;;;;;;1999.90;999.90;;;8.40;99.90;;;;;;5056337;28;20247;-40
2021/05/22 07:05:48;;;;;;;1999.90;999.90;;;8.60;99.90;;;;;;5056158;28;20168;-49
2021/05/22 07:08:18;;;;;;;1999.90;999.90;;;8.70;99.90;;;;;;5055954;28;20568;-41
2021/05/22 07:10:47;;;;;;;1999.90;999.90;;;8.80;99.90;;;;;;5056229;28;20173;-42
2021/05/22 07:13:14;;;;;;;1999.90;999.90;;;8.80;99.90;;;;;;5056210;28;20173;-44
2021/05/22 07:15:41;;;;;;;1999.90;999.90;;;8.80;99.90;;;;;;5056311;28;20165;-41
2021/05/22 07:18:08;;;;;;;1999.90;999.90;;;8.80;99.90;;;;;;5056334;28;20166;-41
2021/05/22 07:20:34;;;;;;;1999.90;999.90;;;8.80;99.90;;;;;;5056179;28;20180;-44
2021/05/22 07:23:01;;;;;;;1999.90;999.90;;;8.90;99.90;;;;;;5056217;28;20167;-44
2021/05/22 07:25:28;;;;;;;1999.90;999.90;;;9.10;99.90;;;;;;5056126;28;20166;-50
2021/05/22 07:27:56;;;;;;;1999.90;999.90;;;9.30;99.90;;;;;;5055885;28;20184;-44
2021/05/22 07:30:23;;;;;;;1999.90;999.90;;;9.50;99.90;;;;;;5056008;28;20255;-41
2021/05/22 07:32:50;;;;;;;1999.90;999.90;;;9.50;99.90;;;;;;5055909;28;20173;-46
2021/05/22 07:35:17;;;;;;;1999.90;999.90;;;9.60;99.90;;;;;;5055975;28;20172;-40
2021/05/22 07:37:44;;;;;;;1999.90;999.90;;;9.60;99.90;;;;;;5055780;28;20181;-43
2021/05/22 07:40:13;;;;;;;1999.90;999.90;;;9.80;99.90;;;;;;5055894;28;20215;-45
2021/05/22 07:42:40;;;;;;;1999.90;999.90;;;9.80;99.90;;;;;;5055840;28;20212;-44
2021/05/22 07:45:08;;;;;;;1999.90;999.90;;;9.90;99.90;;;;;;5055659;28;20200;-43
2021/05/22 07:47:35;;;;;;;1999.90;999.90;;;10.10;99.90;;;;;;5055675;28;20295;-41
2021/05/22 07:50:03;;;;;;;1999.90;999.90;;;10.20;99.90;;;;;;5055599;28;20197;-45
2021/05/22 07:52:29;;;;;;;1999.90;999.90;;;10.30;99.90;;;;;;5055569;28;20511;-47
2021/05/22 07:54:56;;;;;;;1999.90;999.90;;;10.40;99.90;;;;;;5055517;28;20187;-42
2021/05/22 07:57:23;;;;;;;1999.90;999.90;;;10.40;99.90;;;;;;5054673;28;20176;-42
2021/05/22 07:59:50;;;;;;;1999.90;999.90;;;10.40;99.90;;;;;;5055456;28;20508;-43
2021/05/22 08:02:17;;;;;;;1999.90;999.90;;;10.40;99.90;;;;;;5055401;28;20164;-48
2021/05/22 08:04:44;;;;;;;1999.90;999.90;;;10.70;99.90;;;;;;5055349;28;20248;-45
2021/05/22 08:07:11;;;;;;;1999.90;999.90;;;10.80;99.90;;;;;;5055364;28;20177;-44
2021/05/22 08:09:38;;;;;;;1999.90;999.90;;;10.90;99.90;;;;;;5055318;28;20262;-41
2021/05/22 08:12:06;;;;;;;1999.90;999.90;;;11.00;99.90;;;;;;5055439;28;20589;-43
2021/05/22 08:14:33;;;;;;;1999.90;999.90;;;11.10;99.90;;;;;;5055125;28;20535;-48
2021/05/22 08:17:00;;;;;;;1999.90;999.90;;;11.20;99.90;;;;;;5055186;28;20248;-50
2021/05/22 08:19:27;;;;;;;1999.90;999.90;;;11.40;99.90;;;;;;5053827;28;20573;-44
2021/05/22 08:21:54;;;;;;;1999.90;999.90;;;11.50;99.90;;;;;;5055042;28;20157;-47
2021/05/22 08:24:20;;;;;;;1999.90;999.90;;;11.70;99.90;;;;;;5054918;28;20180;-46
2021/05/22 08:26:47;;;;;;;1999.90;999.90;;;11.80;99.90;;;;;;5054803;28;20161;-48
2021/05/22 08:29:14;;;;;;;1999.90;999.90;;;11.90;99.90;;;;;;5054845;28;20199;-48
2021/05/22 08:31:41;;;;;;;1999.90;999.90;;;12.00;99.90;;;;;;5054791;28;20169;-50
2021/05/22 08:34:08;;;;;;;1999.90;999.90;;;12.10;99.80;;;;;;5054566;28;20177;-47
2021/05/22 08:36:35;;;;;;;1999.90;999.90;;;12.20;99.30;;;;;;5054691;28;20166;-50
2021/05/22 08:39:03;;;;;;;1999.90;999.90;;;12.30;98.60;;;;;;5054511;28;20529;-47
2021/05/22 08:41:33;;;;;;;1999.90;999.90;;;12.40;98.80;;;;;;5054328;28;20169;-43
2021/05/22 08:44:02;;;;;;;1999.90;999.90;;;12.40;98.10;;;;;;5054327;28;20181;-46
2021/05/22 08:46:31;;;;;;;1999.90;999.90;;;12.60;97.60;;;;;;5054119;28;20233;-49
2021/05/22 08:48:58;;;;;;;1999.90;999.90;;;12.70;96.50;;;;;;5054336;28;20208;-50
2021/05/22 08:51:25;;;;;;;1999.90;999.90;;;12.90;96.50;;;;;;5054401;28;20169;-44
2021/05/22 08:53:52;;;;;;;1999.90;999.90;;;13.10;95.60;;;;;;5054035;28;20177;-46
2021/05/22 08:56:19;;;;;;;1999.90;999.90;;;13.20;94.00;;;;;;5054217;28;20180;-48
2021/05/22 08:58:47;;;;;;;1999.90;999.90;;;13.40;94.90;;;;;;5054079;28;20176;-47
2021/05/22 09:01:14;;;;;;;1999.90;999.90;;;13.40;94.50;;;;;;5054067;28;20181;-44
2021/05/22 09:03:43;;;;;;;1999.90;999.90;;;13.50;92.10;;;;;;5053941;28;20165;-43
2021/05/22 09:06:10;;;;;;;1999.90;999.90;;;13.50;92.70;;;;;;5053766;28;20173;-48
2021/05/22 09:08:37;;;;;;;1999.90;999.90;;;13.70;90.70;;;;;;5052686;28;20201;-45
2021/05/22 09:11:06;;;;;;;1999.90;999.90;;;13.80;90.50;;;;;;5053704;28;20235;-48
2021/05/22 09:13:35;;;;;;;1999.90;999.90;;;13.90;88.00;;;;;;5053557;28;20184;-45
2021/05/22 09:16:11;;;;;;;1999.90;999.90;;;14.00;87.70;;;;;;5053453;28;20260;-43
2021/05/22 09:18:41;;;;;;;1999.90;999.90;;;14.00;87.70;;;;;;5053591;28;20170;-46
2021/05/22 09:21:10;;;;;;;1999.90;999.90;;;14.20;90.30;;;;;;5053448;28;20173;-46
2021/05/22 09:23:39;;;;;;;1999.90;999.90;;;14.20;84.20;;;;;;5053601;28;20172;-45
2021/05/22 09:26:14;;;;;;;1999.90;999.90;;;14.30;85.10;;;;;;5053354;28;20173;-51
2021/05/22 09:28:50;;;;;;;1999.90;999.90;;;14.40;82.30;;;;;;5053371;28;20196;-45
2021/05/22 09:31:19;;;;;;;1999.90;999.90;;;14.50;80.10;;;;;;5053353;28;20169;-47
2021/05/22 09:33:46;;;;;;;1999.90;999.90;;;14.60;78.90;;;;;;5053236;28;20165;-48
2021/05/22 09:36:15;;;;;;;1999.90;999.90;;;14.70;78.00;;;;;;5053266;28;20169;-46
2021/05/22 09:38:47;;;;;;;1999.90;999.90;;;14.70;75.30;;;;;;5053166;28;20166;-47
2021/05/22 09:41:20;;;;;;;1999.90;999.90;;;14.80;79.60;;;;;;5053051;28;20165;-50
2021/05/22 09:44:12;;;;;;;1999.90;999.90;;;15.00;72.70;;;;;;5053155;28;20196;-48
2021/05/22 09:47:00;;;;;;;1999.90;999.90;;;15.00;68.70;;;;;;5052779;28;20706;-43
2021/05/22 09:49:32;;;;;;;1999.90;999.90;;;15.00;70.80;;;;;;5052903;28;20211;-43
2021/05/22 09:52:00;;;;;;;1999.90;999.90;;;15.00;67.10;;;;;;5052805;28;20275;-43
2021/05/22 09:54:49;;;;;;;1999.90;999.90;;;15.10;69.80;;;;;;5053002;28;20192;-50
2021/05/22 09:57:18;;;;;;;1999.90;999.90;;;15.10;69.70;;;;;;5052853;28;20180;-43
2021/05/22 10:00:17;;;;;;;1999.90;999.90;;;15.10;70.10;;;;;;5052850;28;20179;-45
2021/05/22 10:02:49;;;;;;;1999.90;999.90;;;15.30;67.40;;;;;;5052917;28;20244;-47
2021/05/22 10:05:22;;;;;;;1999.90;999.90;;;15.40;64.90;;;;;;5052778;28;20578;-43
2021/05/22 10:07:51;;;;;;;1999.90;999.90;;;15.30;65.10;;;;;;5052802;28;20169;-48
2021/05/22 10:10:20;;;;;;;1999.90;999.90;;;15.40;62.90;;;;;;5052762;28;20704;-45
2021/05/22 10:12:47;;;;;;;1999.90;999.90;;;15.50;63.80;;;;;;5052560;28;20167;-47
2021/05/22 10:15:16;;;;;;;1999.90;999.90;;;15.70;67.40;;;;;;5052530;28;20191;-47
2021/05/22 10:17:43;;;;;;;1999.90;999.90;;;15.80;68.00;;;;;;5052610;28;20169;-48
2021/05/22 10:20:12;;;;;;;1999.90;999.90;;;15.70;65.30;;;;;;5052081;28;20157;-45
2021/05/22 10:22:43;;;;;;;1999.90;999.90;;;15.90;64.50;;;;;;5052649;28;20214;-43
2021/05/22 10:25:11;;;;;;;1999.90;999.90;;;16.00;66.20;;;;;;5052503;28;20162;-48
2021/05/22 10:27:38;;;;;;;1999.90;999.90;;;16.00;65.30;;;;;;5052627;28;20176;-49
2021/05/22 10:30:07;;;;;;;1999.90;999.90;;;16.10;65.80;;;;;;5052464;28;20261;-48
2021/05/22 10:32:37;;;;;;;1999.90;999.90;;;16.30;63.30;;;;;;5052352;28;20165;-47
2021/05/22 10:35:20;;;;;;;1999.90;999.90;;;16.50;62.40;;;;;;5052579;28;20177;-46
2021/05/22 10:37:49;;;;;;;1999.90;999.90;;;16.70;61.20;;;;;;5052208;28;20172;-43
2021/05/22 10:40:18;;;;;;;1999.90;999.90;;;16.80;61.50;;;;;;5052701;28;20181;-53
2021/05/22 10:42:56;;;;;;;1999.90;999.90;;;16.90;58.20;;;;;;5052386;28;20173;-52
2021/05/22 10:45:29;;;;;;;1999.90;999.90;;;16.60;59.50;;;;;;5052372;28;20228;-52
2021/05/22 10:48:02;;;;;;;1999.90;999.90;;;16.60;59.60;;;;;;5052298;28;20189;-47
2021/05/22 10:50:42;;;;;;;1999.90;999.90;;;16.60;62.10;;;;;;5052427;28;20207;-47
2021/05/22 10:53:25;;;;;;;1999.90;999.90;;;16.90;61.20;;;;;;5052452;28;20243;-43
2021/05/22 10:56:05;;;;;;;1999.90;999.90;;;17.10;61.20;;;;;;5052702;28;20283;-53
2021/05/22 10:58:32;;;;;;;1999.90;999.90;;;17.30;57.40;;;;;;5052263;28;20172;-45
2021/05/22 11:01:42;;;;;;;1999.90;999.90;;;17.30;57.40;;;;;;5052457;28;20192;-43
2021/05/22 11:04:21;;;;;;;1999.90;999.90;;;17.50;60.30;;;;;;5052334;28;20730;-44
2021/05/22 11:06:55;;;;;;;1999.90;999.90;;;17.60;58.30;;;;;;5052288;28;20726;-43
2021/05/22 11:09:29;;;;;;;1999.90;999.90;;;17.60;58.20;;;;;;5052291;28;20188;-43
2021/05/22 11:12:01;;;;;;;1999.90;999.90;;;17.60;56.70;;;;;;5052310;28;20308;-44
2021/05/22 11:14:34;;;;;;;1999.90;999.90;;;17.60;57.80;;;;;;5052292;28;20256;-46
2021/05/22 11:17:28;;;;;;;1999.90;999.90;;;17.70;55.40;;;;;;5052213;28;20169;-50
2021/05/22 11:22:26;;;;;;;1999.90;999.90;;;17.80;54.50;;;;;;5052376;28;20643;-48
2021/05/22 11:25:05;;;;;;;1999.90;999.90;;;17.70;57.40;;;;;;5052368;28;20169;-46
2021/05/22 11:27:48;;;;;;;1999.90;999.90;;;17.80;55.80;;;;;;5052439;28;20169;-47
2021/05/22 11:30:19;;;;;;;1999.90;999.90;;;17.90;53.40;;;;;;5052226;28;20200;-44
2021/05/22 11:33:02;;;;;;;1999.90;999.90;;;17.80;54.50;;;;;;5055182;28;20157;-43
2021/05/22 11:35:31;;;;;;;1999.90;999.90;;;17.80;51.90;;;;;;5056103;28;20212;-49
2021/05/22 11:38:18;;;;;;;1999.90;999.90;;;17.90;51.80;;;;;;5055920;28;20234;-46
2021/05/22 11:40:45;;;;;;;1999.90;999.90;;;17.70;52.90;;;;;;5055658;28;20223;-42
2021/05/22 11:43:16;;;;;;;1999.90;999.90;;;17.80;51.60;;;;;;5054374;28;20538;-44
2021/05/22 11:45:43;;;;;;;1999.90;999.90;;;17.80;50.60;;;;;;5055372;28;20228;-44
2021/05/22 11:48:23;;;;;;;1999.90;999.90;;;17.60;52.70;;;;;;5055468;28;20166;-48
2021/05/22 11:50:51;;;;;;;1999.90;999.90;;;17.70;53.10;;;;;;5055629;28;20255;-46
2021/05/22 11:53:18;;;;;;;1999.90;999.90;;;17.80;52.50;;;;;;5055433;28;20161;-43
2021/05/22 11:55:55;;;;;;;1999.90;999.90;;;17.90;52.60;;;;;;5055295;28;20188;-44
2021/05/22 11:58:22;;;;;;;1999.90;999.90;;;18.00;52.00;;;;;;5055453;28;20161;-45
2021/05/22 12:00:49;;;;;;;1999.90;999.90;;;18.00;52.50;;;;;;5055339;28;20197;-48
2021/05/22 12:03:27;;;;;;;1999.90;999.90;;;18.10;51.00;;;;;;5055134;28;20204;-43
2021/05/22 12:05:56;;;;;;;1999.90;999.90;;;18.10;50.50;;;;;;5055128;28;20157;-43
2021/05/22 12:08:27;;;;;;;1999.90;999.90;;;18.10;49.80;;;;;;5055067;28;20208;-44
2021/05/22 12:10:54;;;;;;;1999.90;999.90;;;18.10;51.80;;;;;;5055009;28;20165;-49
2021/05/22 12:13:21;;;;;;;1999.90;999.90;;;18.00;51.60;;;;;;5053719;28;20200;-46
2021/05/22 12:15:48;;;;;;;1999.90;999.90;;;18.00;52.90;;;;;;5054915;28;20595;-44
2021/05/22 12:18:16;;;;;;;1999.90;999.90;;;17.90;52.00;;;;;;5054754;28;20169;-46
2021/05/22 12:20:47;;;;;;;1999.90;999.90;;;17.80;54.50;;;;;;5054710;28;20172;-48
2021/05/22 12:23:28;;;;;;;1999.90;999.90;;;17.80;55.20;;;;;;5054733;28;20185;-47